Aérodrome :
LOGIN :

S'inscrire | Disclaimer

   EN    FR    IT 

 










Légende :    VFR   VFR Marginal   IFR   IFR Intensif   IFR Très Intensif
Visi : 
Plafond : 
>= 8 km
>= 3000ft
5 à 8 km
1000 à 3000 ft
1500m à 5 km
500 à 1000 ft
800 à 1500m
200 à 500 ft
< 800m
< 200 ft
Symboles :   Orages  Brouillard  Fortes neiges  Fortes précipitations  Vent > 20 kt
SIGMETs :   Divers  Orages  Givrage  Turbulence  Onde Orograph.  Cendres Volcan.







- Altitude de l'aérodrome : 124 ft
- Code IATA : AVN
- Voir les cartes d'approche


LFMV - Avignon Caumont

DERNIER METAR :
  • 240330Z AUTO 18004KT 5000 BR OVC037 07/07 Q1032 TEMPO 2000 BR BKN010

METARs EXPIRÉS :
  • 240300Z AUTO VRB01KT 5000 BR OVC036 07/06 Q1032 TEMPO 2000 BR BKN010
  • 240230Z AUTO VRB02KT 4700 BR OVC036 07/06 Q1032
  • 240200Z AUTO 12002KT 4400 BR OVC037 06/05 Q1032
  • 240130Z AUTO 14003KT 5000 BR OVC037 04/03 Q1032
  • 240100Z AUTO 14003KT 4100 BR OVC037 04/02 Q1032

TAF TAF LFMV
Valide du 24 à 03h jusqu'au 25 à 03h UTC


240200Z 2403/2503 VRB03KT 4000 BR OVC030
TEMPO 2404/2407 2000 BR BKN010
TEMPO 2417/2419 24010KT
PROB30
TEMPO 2500/2503 2000 BR
ATIS : +33 4 90 84 32 84
Pas de NOTAMs connus pour ce terrain.
1 SIGMET publié pour la FIR Marseille (LFMM) :
 
Onde orographique forte
LFMM SIGMET 5 VALID 240100/240500 LFPW
LFMM MARSEILLE FIR/UIR SEV MTW FCST WI N4330 E00845 - N4315 E00945 - N4115 E00945 - N4115 E00830 - N4200 E00800 - N4330 E00845 SFC/FL200 STNR NC=



MET'MAP, la Météo Aéronautique d'un coup d'oeil ! - Copyright ORBIFLY Décembre 2007 - Disclaimer

ORBIFLY MET'MAP TEAM :

Programmation & Développement : Alexandra Zaïnal
Conception & Développement : Baudouin d'Aumeries
Co-Programmation & Développement : Marc-Olivier Méhu
Soutien technique & logistique : Manuel Goepfert

Contact : metmap@orbifly.com




SOURCES & CREDITS :

   NOAA